sensor_id;sensor_type;location;lat;lon;timestamp;pressure;altitude;pressure_sealevel;temperature;humidity
24230;BME280;12362;50.004;8.006;2022-12-13T00:02:10;100286.41;;;-3.83;100.00
24230;BME280;12362;50.004;8.006;2022-12-13T00:04:36;100293.94;;;-3.93;100.00
24230;BME280;12362;50.004;8.006;2022-12-13T00:07:01;100286.38;;;-3.87;100.00
24230;BME280;12362;50.004;8.006;2022-12-13T00:09:32;100282.13;;;-3.90;100.00
24230;BME280;12362;50.004;8.006;2022-12-13T00:11:57;100286.34;;;-3.89;100.00
24230;BME280;12362;50.004;8.006;2022-12-13T00:14:23;100282.97;;;-3.92;100.00
24230;BME280;12362;50.004;8.006;2022-12-13T00:16:49;100282.13;;;-3.93;100.00
24230;BME280;12362;50.004;8.006;2022-12-13T00:19:15;100284.72;;;-3.84;100.00
24230;BME280;12362;50.004;8.006;2022-12-13T00:21:40;100278.72;;;-3.93;100.00
24230;BME280;12362;50.004;8.006;2022-12-13T00:24:06;100277.78;;;-4.10;100.00
24230;BME280;12362;50.004;8.006;2022-12-13T00:26:33;100276.06;;;-4.14;100.00
24230;BME280;12362;50.004;8.006;2022-12-13T00:28:59;100273.47;;;-4.22;100.00
24230;BME280;12362;50.004;8.006;2022-12-13T00:31:25;100268.44;;;-4.14;100.00
24230;BME280;12362;50.004;8.006;2022-12-13T00:33:51;100264.28;;;-4.09;100.00
24230;BME280;12362;50.004;8.006;2022-12-13T00:36:17;100263.38;;;-4.14;100.00
24230;BME280;12362;50.004;8.006;2022-12-13T00:38:43;100260.75;;;-4.26;100.00
24230;BME280;12362;50.004;8.006;2022-12-13T00:41:19;100258.16;;;-4.35;100.00
24230;BME280;12362;50.004;8.006;2022-12-13T00:43:45;100253.16;;;-4.26;100.00
24230;BME280;12362;50.004;8.006;2022-12-13T00:46:16;100253.25;;;-4.13;100.00
24230;BME280;12362;50.004;8.006;2022-12-13T00:48:42;100253.22;;;-4.17;100.00
24230;BME280;12362;50.004;8.006;2022-12-13T00:51:10;100248.19;;;-4.14;100.00
24230;BME280;12362;50.004;8.006;2022-12-13T00:53:36;100246.47;;;-4.14;100.00
24230;BME280;12362;50.004;8.006;2022-12-13T00:56:03;100243.91;;;-4.21;100.00
24230;BME280;12362;50.004;8.006;2022-12-13T00:58:29;100247.22;;;-4.28;100.00
24230;BME280;12362;50.004;8.006;2022-12-13T01:01:03;100249.75;;;-4.28;100.00
24230;BME280;12362;50.004;8.006;2022-12-13T01:03:29;100243.03;;;-4.26;100.00
24230;BME280;12362;50.004;8.006;2022-12-13T01:05:54;100239.63;;;-4.28;100.00
24230;BME280;12362;50.004;8.006;2022-12-13T01:08:20;100240.50;;;-4.28;100.00
24230;BME280;12362;50.004;8.006;2022-12-13T01:10:46;100238.81;;;-4.23;100.00
24230;BME280;12362;50.004;8.006;2022-12-13T01:13:13;100239.59;;;-4.31;100.00
24230;BME280;12362;50.004;8.006;2022-12-13T01:15:43;100253.03;;;-4.43;100.00
24230;BME280;12362;50.004;8.006;2022-12-13T01:18:10;100247.16;;;-4.39;100.00
24230;BME280;12362;50.004;8.006;2022-12-13T01:20:36;100246.28;;;-4.41;100.00
24230;BME280;12362;50.004;8.006;2022-12-13T01:23:07;100258.13;;;-4.37;100.00
24230;BME280;12362;50.004;8.006;2022-12-13T01:25:36;100258.16;;;-4.35;100.00
24230;BME280;12362;50.004;8.006;2022-12-13T01:28:02;100259.03;;;-4.33;100.00
24230;BME280;12362;50.004;8.006;2022-12-13T01:30:27;100251.31;;;-4.44;100.00
24230;BME280;12362;50.004;8.006;2022-12-13T01:32:53;100254.59;;;-4.58;100.00
24230;BME280;12362;50.004;8.006;2022-12-13T01:35:18;100258.78;;;-4.60;100.00
24230;BME280;12362;50.004;8.006;2022-12-13T01:37:44;100254.59;;;-4.58;100.00
24230;BME280;12362;50.004;8.006;2022-12-13T01:40:10;100258.00;;;-4.56;100.00
24230;BME280;12362;50.004;8.006;2022-12-13T01:42:37;100253.75;;;-4.55;100.00
24230;BME280;12362;50.004;8.006;2022-12-13T01:47:42;100242.72;;;-4.63;100.00
24230;BME280;12362;50.004;8.006;2022-12-13T01:50:18;100243.41;;;-4.78;100.00
24230;BME280;12362;50.004;8.006;2022-12-13T01:52:47;100240.03;;;-4.78;100.00
24230;BME280;12362;50.004;8.006;2022-12-13T01:55:14;100244.28;;;-4.76;100.00
24230;BME280;12362;50.004;8.006;2022-12-13T01:57:48;100246.88;;;-4.70;100.00
24230;BME280;12362;50.004;8.006;2022-12-13T02:00:15;100238.56;;;-4.57;100.00
24230;BME280;12362;50.004;8.006;2022-12-13T02:02:41;100224.31;;;-4.46;100.00
24230;BME280;12362;50.004;8.006;2022-12-13T02:07:43;100219.31;;;-4.33;100.00
24230;BME280;12362;50.004;8.006;2022-12-13T02:10:11;100224.41;;;-4.28;100.00
24230;BME280;12362;50.004;8.006;2022-12-13T02:12:38;100227.84;;;-4.22;100.00
24230;BME280;12362;50.004;8.006;2022-12-13T02:15:07;100236.25;;;-4.26;100.00
24230;BME280;12362;50.004;8.006;2022-12-13T02:23:17;100236.31;;;-4.20;100.00
24230;BME280;12362;50.004;8.006;2022-12-13T02:31:48;100229.66;;;-4.04;100.00
24230;BME280;12362;50.004;8.006;2022-12-13T02:34:23;100239.78;;;-4.10;100.00
24230;BME280;12362;50.004;8.006;2022-12-13T02:37:07;100239.75;;;-4.07;100.00
24230;BME280;12362;50.004;8.006;2022-12-13T02:40:22;100233.84;;;-4.12;100.00
24230;BME280;12362;50.004;8.006;2022-12-13T02:43:11;100231.28;;;-4.17;100.00
24230;BME280;12362;50.004;8.006;2022-12-13T02:45:50;100240.53;;;-4.22;100.00
24230;BME280;12362;50.004;8.006;2022-12-13T02:48:22;100225.25;;;-4.31;100.00
24230;BME280;12362;50.004;8.006;2022-12-13T02:50:50;100225.19;;;-4.40;100.00
24230;BME280;12362;50.004;8.006;2022-12-13T02:53:18;100230.28;;;-4.32;100.00
24230;BME280;12362;50.004;8.006;2022-12-13T02:55:46;100231.28;;;-4.15;100.00
24230;BME280;12362;50.004;8.006;2022-12-13T02:58:13;100222.81;;;-4.17;100.00
24230;BME280;12362;50.004;8.006;2022-12-13T03:03:36;100226.69;;;-4.59;100.00
24230;BME280;12362;50.004;8.006;2022-12-13T03:06:20;100226.56;;;-4.77;100.00
24230;BME280;12362;50.004;8.006;2022-12-13T03:12:12;100227.44;;;-4.75;100.00
24230;BME280;12362;50.004;8.006;2022-12-13T03:15:16;100231.75;;;-4.59;100.00
24230;BME280;12362;50.004;8.006;2022-12-13T03:17:57;100227.63;;;-4.51;100.00
24230;BME280;12362;50.004;8.006;2022-12-13T03:20:26;100228.44;;;-4.55;100.00
24230;BME280;12362;50.004;8.006;2022-12-13T03:22:53;100235.88;;;-4.72;100.00
24230;BME280;12362;50.004;8.006;2022-12-13T03:25:20;100228.97;;;-4.89;100.00
24230;BME280;12362;50.004;8.006;2022-12-13T03:27:46;100223.03;;;-4.93;100.00
24230;BME280;12362;50.004;8.006;2022-12-13T03:30:12;100217.97;;;-4.91;100.00
24230;BME280;12362;50.004;8.006;2022-12-13T03:32:38;100225.66;;;-4.84;100.00
24230;BME280;12362;50.004;8.006;2022-12-13T03:35:04;100218.94;;;-4.79;100.00
24230;BME280;12362;50.004;8.006;2022-12-13T03:37:29;100222.41;;;-4.71;100.00
24230;BME280;12362;50.004;8.006;2022-12-13T03:39:55;100216.56;;;-4.62;100.00
24230;BME280;12362;50.004;8.006;2022-12-13T03:42:21;100219.13;;;-4.58;100.00
24230;BME280;12362;50.004;8.006;2022-12-13T03:44:47;100227.47;;;-4.71;100.00
24230;BME280;12362;50.004;8.006;2022-12-13T03:47:12;100226.47;;;-4.86;100.00
24230;BME280;12362;50.004;8.006;2022-12-13T03:49:38;100229.75;;;-4.95;100.00
24230;BME280;12362;50.004;8.006;2022-12-13T03:52:03;100233.16;;;-4.93;100.00
24230;BME280;12362;50.004;8.006;2022-12-13T03:54:29;100230.63;;;-4.91;100.00
24230;BME280;12362;50.004;8.006;2022-12-13T03:56:54;100220.56;;;-4.87;100.00
24230;BME280;12362;50.004;8.006;2022-12-13T03:59:19;100226.59;;;-4.74;100.00
24230;BME280;12362;50.004;8.006;2022-12-13T04:01:45;100220.66;;;-4.75;100.00
24230;BME280;12362;50.004;8.006;2022-12-13T04:04:10;100218.84;;;-4.89;100.00
24230;BME280;12362;50.004;8.006;2022-12-13T04:06:36;100219.72;;;-4.84;100.00
24230;BME280;12362;50.004;8.006;2022-12-13T04:09:01;100215.25;;;-5.11;100.00
24230;BME280;12362;50.004;8.006;2022-12-13T04:11:27;100217.63;;;-5.26;100.00
24230;BME280;12362;50.004;8.006;2022-12-13T04:14:11;100209.94;;;-5.35;100.00
24230;BME280;12362;50.004;8.006;2022-12-13T04:16:36;100219.22;;;-5.35;100.00
24230;BME280;12362;50.004;8.006;2022-12-13T04:19:02;100214.16;;;-5.34;100.00
24230;BME280;12362;50.004;8.006;2022-12-13T04:21:27;100209.06;;;-5.38;100.00
24230;BME280;12362;50.004;8.006;2022-12-13T04:23:53;100218.94;;;-5.56;100.00
24230;BME280;12362;50.004;8.006;2022-12-13T04:26:18;100219.81;;;-5.54;100.00
24230;BME280;12362;50.004;8.006;2022-12-13T04:28:44;100226.53;;;-5.56;100.00
24230;BME280;12362;50.004;8.006;2022-12-13T04:31:10;100230.81;;;-5.52;100.00
24230;BME280;12362;50.004;8.006;2022-12-13T04:33:35;100232.50;;;-5.52;100.00
24230;BME280;12362;50.004;8.006;2022-12-13T04:36:01;100227.97;;;-5.76;100.00
24230;BME280;12362;50.004;8.006;2022-12-13T04:38:26;100221.19;;;-5.80;100.00
24230;BME280;12362;50.004;8.006;2022-12-13T04:41:17;100235.47;;;-5.85;100.00
24230;BME280;12362;50.004;8.006;2022-12-13T04:43:44;100234.59;;;-5.87;100.00
24230;BME280;12362;50.004;8.006;2022-12-13T04:46:14;100220.31;;;-5.83;100.00
24230;BME280;12362;50.004;8.006;2022-12-13T04:48:40;100230.44;;;-5.83;100.00
24230;BME280;12362;50.004;8.006;2022-12-13T04:51:05;100230.53;;;-5.74;100.00
24230;BME280;12362;50.004;8.006;2022-12-13T04:53:30;100229.66;;;-5.75;100.00
24230;BME280;12362;50.004;8.006;2022-12-13T04:55:56;100225.31;;;-5.89;100.00
24230;BME280;12362;50.004;8.006;2022-12-13T04:58:22;100227.84;;;-5.89;100.00
24230;BME280;12362;50.004;8.006;2022-12-13T05:00:47;100224.53;;;-5.84;100.00
24230;BME280;12362;50.004;8.006;2022-12-13T05:03:13;100226.31;;;-5.74;100.00
24230;BME280;12362;50.004;8.006;2022-12-13T05:05:39;100221.19;;;-5.81;100.00
24230;BME280;12362;50.004;8.006;2022-12-13T05:08:06;100222.84;;;-5.85;100.00
24230;BME280;12362;50.004;8.006;2022-12-13T05:10:32;100222.06;;;-5.78;100.00
24230;BME280;12362;50.004;8.006;2022-12-13T05:12:59;100219.50;;;-5.82;100.00
24230;BME280;12362;50.004;8.006;2022-12-13T05:15:25;100222.97;;;-5.74;100.00
24230;BME280;12362;50.004;8.006;2022-12-13T05:17:50;100228.72;;;-5.86;100.00
24230;BME280;12362;50.004;8.006;2022-12-13T05:20:16;100223.50;;;-5.99;100.00
24230;BME280;12362;50.004;8.006;2022-12-13T05:22:41;100210.03;;;-5.97;100.00
24230;BME280;12362;50.004;8.006;2022-12-13T05:25:07;100203.41;;;-5.89;100.00
24230;BME280;12362;50.004;8.006;2022-12-13T05:27:32;100206.75;;;-5.91;100.00
24230;BME280;12362;50.004;8.006;2022-12-13T05:30:01;100202.25;;;-6.13;100.00
24230;BME280;12362;50.004;8.006;2022-12-13T05:32:26;100210.69;;;-6.10;100.00
24230;BME280;12362;50.004;8.006;2022-12-13T05:34:52;100204.72;;;-6.16;100.00
24230;BME280;12362;50.004;8.006;2022-12-13T05:37:17;100205.66;;;-6.08;100.00
24230;BME280;12362;50.004;8.006;2022-12-13T05:43:04;100196.59;;;-5.94;100.00
24230;BME280;12362;50.004;8.006;2022-12-13T05:45:31;100185.50;;;-6.07;100.00
24230;BME280;12362;50.004;8.006;2022-12-13T05:47:56;100186.03;;;-6.28;100.00
24230;BME280;12362;50.004;8.006;2022-12-13T05:50:22;100186.91;;;-6.25;100.00
24230;BME280;12362;50.004;8.006;2022-12-13T05:52:48;100195.44;;;-6.19;100.00
24230;BME280;12362;50.004;8.006;2022-12-13T05:55:13;100204.75;;;-6.13;100.00
24230;BME280;12362;50.004;8.006;2022-12-13T05:57:39;100203.94;;;-6.11;100.00
24230;BME280;12362;50.004;8.006;2022-12-13T06:00:07;100200.56;;;-6.13;100.00
24230;BME280;12362;50.004;8.006;2022-12-13T06:02:39;100200.50;;;-6.17;100.00
24230;BME280;12362;50.004;8.006;2022-12-13T06:05:05;100192.91;;;-6.17;100.00
24230;BME280;12362;50.004;8.006;2022-12-13T06:07:31;100193.84;;;-6.09;100.00
24230;BME280;12362;50.004;8.006;2022-12-13T06:09:57;100195.56;;;-6.08;100.00
24230;BME280;12362;50.004;8.006;2022-12-13T06:12:25;100202.28;;;-6.09;100.00
24230;BME280;12362;50.004;8.006;2022-12-13T06:14:51;100205.81;;;-5.96;100.00
24230;BME280;12362;50.004;8.006;2022-12-13T06:17:17;100204.38;;;-5.79;100.00
24230;BME280;12362;50.004;8.006;2022-12-13T06:19:51;100202.84;;;-5.65;100.00
24230;BME280;12362;50.004;8.006;2022-12-13T06:22:17;100201.91;;;-5.72;100.00
24230;BME280;12362;50.004;8.006;2022-12-13T06:24:43;100206.81;;;-5.85;100.00
24230;BME280;12362;50.004;8.006;2022-12-13T06:27:08;100204.13;;;-5.97;100.00
24230;BME280;12362;50.004;8.006;2022-12-13T06:29:33;100205.03;;;-5.92;100.00
24230;BME280;12362;50.004;8.006;2022-12-13T06:32:00;100202.63;;;-5.86;100.00
24230;BME280;12362;50.004;8.006;2022-12-13T06:34:27;100201.75;;;-5.87;100.00
24230;BME280;12362;50.004;8.006;2022-12-13T06:36:53;100202.53;;;-5.92;100.00
24230;BME280;12362;50.004;8.006;2022-12-13T06:39:18;100198.94;;;-6.08;100.00
24230;BME280;12362;50.004;8.006;2022-12-13T06:41:44;100195.53;;;-6.10;100.00
24230;BME280;12362;50.004;8.006;2022-12-13T06:44:10;100198.94;;;-6.08;100.00
24230;BME280;12362;50.004;8.006;2022-12-13T06:46:36;100197.34;;;-6.01;100.00
24230;BME280;12362;50.004;8.006;2022-12-13T06:49:01;100198.34;;;-5.89;100.00
24230;BME280;12362;50.004;8.006;2022-12-13T06:51:27;100200.16;;;-5.82;100.00
24230;BME280;12362;50.004;8.006;2022-12-13T06:53:52;100204.41;;;-5.75;100.00
24230;BME280;12362;50.004;8.006;2022-12-13T06:56:18;100205.22;;;-5.76;100.00
24230;BME280;12362;50.004;8.006;2022-12-13T06:58:44;100207.56;;;-5.92;100.00
24230;BME280;12362;50.004;8.006;2022-12-13T07:01:17;100207.63;;;-5.89;100.00
24230;BME280;12362;50.004;8.006;2022-12-13T07:03:43;100205.25;;;-5.77;100.00
24230;BME280;12362;50.004;8.006;2022-12-13T07:06:19;100205.91;;;-5.90;100.00
24230;BME280;12362;50.004;8.006;2022-12-13T07:08:56;100209.16;;;-5.99;100.00
24230;BME280;12362;50.004;8.006;2022-12-13T07:11:28;100204.94;;;-6.00;100.00
24230;BME280;12362;50.004;8.006;2022-12-13T07:13:54;100205.03;;;-5.92;100.00
24230;BME280;12362;50.004;8.006;2022-12-13T07:16:20;100205.94;;;-5.89;100.00
24230;BME280;12362;50.004;8.006;2022-12-13T07:18:46;100208.50;;;-5.87;100.00
24230;BME280;12362;50.004;8.006;2022-12-13T07:21:13;100216.63;;;-6.06;100.00
24230;BME280;12362;50.004;8.006;2022-12-13T07:23:40;100207.34;;;-6.09;100.00
24230;BME280;12362;50.004;8.006;2022-12-13T07:26:06;100204.13;;;-5.99;100.00
24230;BME280;12362;50.004;8.006;2022-12-13T07:28:34;100204.28;;;-5.85;100.00
24230;BME280;12362;50.004;8.006;2022-12-13T07:31:02;100197.66;;;-5.76;100.00
24230;BME280;12362;50.004;8.006;2022-12-13T07:33:29;100209.56;;;-5.66;100.00
24230;BME280;12362;50.004;8.006;2022-12-13T07:36:12;100220.63;;;-5.56;100.00
24230;BME280;12362;50.004;8.006;2022-12-13T07:38:38;100211.44;;;-5.48;100.00
24230;BME280;12362;50.004;8.006;2022-12-13T07:41:04;100215.69;;;-5.47;100.00
24230;BME280;12362;50.004;8.006;2022-12-13T07:43:31;100216.56;;;-5.44;100.00
24230;BME280;12362;50.004;8.006;2022-12-13T07:45:58;100213.25;;;-5.40;100.00
24230;BME280;12362;50.004;8.006;2022-12-13T07:48:25;100212.38;;;-5.42;100.00
24230;BME280;12362;50.004;8.006;2022-12-13T07:50:51;100221.66;;;-5.41;100.00
24230;BME280;12362;50.004;8.006;2022-12-13T07:53:16;100220.84;;;-5.39;100.00
24230;BME280;12362;50.004;8.006;2022-12-13T07:55:41;100213.38;;;-5.28;100.00
24230;BME280;12362;50.004;8.006;2022-12-13T07:58:13;100210.03;;;-5.29;100.00
24230;BME280;12362;50.004;8.006;2022-12-13T08:00:42;100215.22;;;-5.15;100.00
24230;BME280;12362;50.004;8.006;2022-12-13T08:03:08;100213.56;;;-5.12;100.00
24230;BME280;12362;50.004;8.006;2022-12-13T08:05:34;100216.00;;;-5.21;100.00
24230;BME280;12362;50.004;8.006;2022-12-13T08:08:01;100210.13;;;-5.18;100.00
24230;BME280;12362;50.004;8.006;2022-12-13T08:10:27;100210.84;;;-5.27;100.00
24230;BME280;12362;50.004;8.006;2022-12-13T08:12:52;100207.50;;;-5.29;100.00
24230;BME280;12362;50.004;8.006;2022-12-13T08:15:18;100204.13;;;-5.25;100.00
24230;BME280;12362;50.004;8.006;2022-12-13T08:17:44;100200.00;;;-5.20;100.00
24230;BME280;12362;50.004;8.006;2022-12-13T08:20:10;100200.97;;;-5.06;100.00
24230;BME280;12362;50.004;8.006;2022-12-13T08:22:35;100206.16;;;-4.94;100.00
24230;BME280;12362;50.004;8.006;2022-12-13T08:25:01;100207.97;;;-4.81;100.00
24230;BME280;12362;50.004;8.006;2022-12-13T08:27:27;100204.69;;;-4.71;100.00
24230;BME280;12362;50.004;8.006;2022-12-13T08:29:53;100204.72;;;-4.65;100.00
24230;BME280;12362;50.004;8.006;2022-12-13T08:32:18;100203.91;;;-4.62;100.00
24230;BME280;12362;50.004;8.006;2022-12-13T08:34:43;100194.63;;;-4.60;100.00
24230;BME280;12362;50.004;8.006;2022-12-13T08:37:10;100192.16;;;-4.53;100.00
24230;BME280;12362;50.004;8.006;2022-12-13T08:39:37;100195.56;;;-4.47;100.00
24230;BME280;12362;50.004;8.006;2022-12-13T08:42:05;100192.31;;;-4.34;100.00
24230;BME280;12362;50.004;8.006;2022-12-13T08:44:31;100195.75;;;-4.23;100.00
24230;BME280;12362;50.004;8.006;2022-12-13T08:46:57;100198.41;;;-4.05;100.00
24230;BME280;12362;50.004;8.006;2022-12-13T08:49:22;100194.28;;;-3.91;100.00
24230;BME280;12362;50.004;8.006;2022-12-13T08:51:47;100203.63;;;-3.76;100.00
24230;BME280;12362;50.004;8.006;2022-12-13T08:54:13;100218.94;;;-3.61;100.00
24230;BME280;12362;50.004;8.006;2022-12-13T08:56:38;100223.16;;;-3.58;100.00
24230;BME280;12362;50.004;8.006;2022-12-13T08:59:04;100231.66;;;-3.44;100.00
24230;BME280;12362;50.004;8.006;2022-12-13T09:01:29;100215.66;;;-3.32;100.00
24230;BME280;12362;50.004;8.006;2022-12-13T09:03:55;100223.31;;;-3.19;100.00
24230;BME280;12362;50.004;8.006;2022-12-13T09:06:21;100228.44;;;-3.04;100.00
24230;BME280;12362;50.004;8.006;2022-12-13T09:08:46;100226.75;;;-2.93;100.00
24230;BME280;12362;50.004;8.006;2022-12-13T09:11:12;100225.09;;;-2.86;100.00
24230;BME280;12362;50.004;8.006;2022-12-13T09:13:39;100230.19;;;-2.79;100.00
24230;BME280;12362;50.004;8.006;2022-12-13T09:16:07;100215.78;;;-2.71;100.00
24230;BME280;12362;50.004;8.006;2022-12-13T09:18:34;100217.47;;;-2.69;100.00
24230;BME280;12362;50.004;8.006;2022-12-13T09:21:00;100216.63;;;-2.63;100.00
24230;BME280;12362;50.004;8.006;2022-12-13T09:23:29;100214.94;;;-2.57;100.00
24230;BME280;12362;50.004;8.006;2022-12-13T09:25:56;100214.94;;;-2.49;100.00
24230;BME280;12362;50.004;8.006;2022-12-13T09:28:22;100220.03;;;-2.46;100.00
24230;BME280;12362;50.004;8.006;2022-12-13T09:30:48;100218.31;;;-2.38;100.00
24230;BME280;12362;50.004;8.006;2022-12-13T09:33:14;100223.41;;;-2.28;100.00
24230;BME280;12362;50.004;8.006;2022-12-13T09:35:39;100224.28;;;-2.33;100.00
24230;BME280;12362;50.004;8.006;2022-12-13T09:38:05;100221.72;;;-2.24;100.00
24230;BME280;12362;50.004;8.006;2022-12-13T09:40:32;100214.09;;;-2.14;100.00
24230;BME280;12362;50.004;8.006;2022-12-13T09:43:00;100219.16;;;-2.23;100.00
24230;BME280;12362;50.004;8.006;2022-12-13T09:45:28;100220.84;;;-2.22;100.00
24230;BME280;12362;50.004;8.006;2022-12-13T09:47:54;100227.63;;;-2.16;100.00
24230;BME280;12362;50.004;8.006;2022-12-13T09:50:27;100218.31;;;-2.04;100.00
24230;BME280;12362;50.004;8.006;2022-12-13T09:52:54;100213.22;;;-2.02;100.00
24230;BME280;12362;50.004;8.006;2022-12-13T09:57:48;100201.28;;;-1.80;100.00
24230;BME280;12362;50.004;8.006;2022-12-13T10:00:20;100204.66;;;-1.75;100.00
24230;BME280;12362;50.004;8.006;2022-12-13T10:02:48;100203.81;;;-1.69;100.00
24230;BME280;12362;50.004;8.006;2022-12-13T10:05:29;100199.56;;;-1.67;100.00
24230;BME280;12362;50.004;8.006;2022-12-13T10:07:58;100191.91;;;-1.61;100.00
24230;BME280;12362;50.004;8.006;2022-12-13T10:10:24;100191.88;;;-1.60;100.00
24230;BME280;12362;50.004;8.006;2022-12-13T10:18:40;100192.66;;;-1.41;100.00
24230;BME280;12362;50.004;8.006;2022-12-13T10:21:10;100187.56;;;-1.38;100.00
24230;BME280;12362;50.004;8.006;2022-12-13T10:23:37;100183.25;;;-1.26;100.00
24230;BME280;12362;50.004;8.006;2022-12-13T10:26:08;100174.69;;;-1.17;100.00
24230;BME280;12362;50.004;8.006;2022-12-13T10:28:34;100164.44;;;-1.04;100.00
24230;BME280;12362;50.004;8.006;2022-12-13T10:31:00;100167.81;;;-0.97;100.00
24230;BME280;12362;50.004;8.006;2022-12-13T10:33:32;100163.47;;;-0.87;100.00
24230;BME280;12362;50.004;8.006;2022-12-13T10:38:36;100155.06;;;-0.96;100.00
24230;BME280;12362;50.004;8.006;2022-12-13T10:41:03;100154.97;;;-0.87;100.00
24230;BME280;12362;50.004;8.006;2022-12-13T10:46:41;100152.31;;;-0.69;100.00
24230;BME280;12362;50.004;8.006;2022-12-13T10:49:25;100145.47;;;-0.66;100.00
24230;BME280;12362;50.004;8.006;2022-12-13T10:51:52;100144.59;;;-0.63;100.00
24230;BME280;12362;50.004;8.006;2022-12-13T10:54:35;100140.34;;;-0.61;100.00
24230;BME280;12362;50.004;8.006;2022-12-13T10:57:04;100147.16;;;-0.65;100.00
24230;BME280;12362;50.004;8.006;2022-12-13T10:59:35;100140.16;;;-0.39;100.00
24230;BME280;12362;50.004;8.006;2022-12-13T11:02:24;100139.25;;;-0.36;100.00
24230;BME280;12362;50.004;8.006;2022-12-13T11:04:51;100129.88;;;-0.31;100.00
24230;BME280;12362;50.004;8.006;2022-12-13T11:09:56;100114.56;;;-0.33;100.00
24230;BME280;12362;50.004;8.006;2022-12-13T11:12:25;100114.63;;;-0.36;100.00
24230;BME280;12362;50.004;8.006;2022-12-13T11:15:02;100134.84;;;-0.21;100.00
24230;BME280;12362;50.004;8.006;2022-12-13T11:17:35;100130.56;;;-0.17;100.00
24230;BME280;12362;50.004;8.006;2022-12-13T11:20:06;100125.41;;;-0.11;100.00
24230;BME280;12362;50.004;8.006;2022-12-13T11:22:36;100123.84;;;-0.24;100.00
24230;BME280;12362;50.004;8.006;2022-12-13T11:25:21;100110.00;;;-0.03;100.00
24230;BME280;12362;50.004;8.006;2022-12-13T11:40:50;100101.44;;;0.03;100.00
24230;BME280;12362;50.004;8.006;2022-12-13T11:43:43;100098.59;;;0.27;100.00
24230;BME280;12362;50.004;8.006;2022-12-13T11:46:18;100091.00;;;0.21;100.00
24230;BME280;12362;50.004;8.006;2022-12-13T11:48:49;100077.41;;;0.22;100.00
24230;BME280;12362;50.004;8.006;2022-12-13T11:51:25;100068.81;;;0.27;100.00
24230;BME280;12362;50.004;8.006;2022-12-13T11:53:57;100061.09;;;0.30;100.00
24230;BME280;12362;50.004;8.006;2022-12-13T11:56:34;100043.34;;;0.23;100.00
24230;BME280;12362;50.004;8.006;2022-12-13T12:01:48;100032.88;;;0.41;100.00
24230;BME280;12362;50.004;8.006;2022-12-13T12:07:02;100025.13;;;0.48;100.00
24230;BME280;12362;50.004;8.006;2022-12-13T12:09:30;100030.06;;;0.57;100.00
24230;BME280;12362;50.004;8.006;2022-12-13T12:12:16;100024.75;;;0.72;100.00
24230;BME280;12362;50.004;8.006;2022-12-13T12:14:48;100024.56;;;0.84;100.00
24230;BME280;12362;50.004;8.006;2022-12-13T12:17:21;100028.81;;;0.85;100.00
24230;BME280;12362;50.004;8.006;2022-12-13T12:19:50;100033.53;;;0.55;100.00
24230;BME280;12362;50.004;8.006;2022-12-13T12:28:06;100031.69;;;0.63;100.00
24230;BME280;12362;50.004;8.006;2022-12-13T12:36:05;100027.75;;;0.42;100.00
24230;BME280;12362;50.004;8.006;2022-12-13T12:47:52;100034.00;;;0.22;100.00
24230;BME280;12362;50.004;8.006;2022-12-13T12:50:24;100026.25;;;0.29;100.00
24230;BME280;12362;50.004;8.006;2022-12-13T12:53:33;100032.09;;;0.36;100.00
24230;BME280;12362;50.004;8.006;2022-12-13T12:56:32;100036.19;;;-0.17;100.00
24230;BME280;12362;50.004;8.006;2022-12-13T13:01:54;100038.88;;;-0.29;100.00
24230;BME280;12362;50.004;8.006;2022-12-13T13:04:32;100038.84;;;-0.26;100.00
24230;BME280;12362;50.004;8.006;2022-12-13T13:07:23;100041.31;;;-0.19;100.00
24230;BME280;12362;50.004;8.006;2022-12-13T13:09:51;100042.97;;;-0.16;100.00
24230;BME280;12362;50.004;8.006;2022-12-13T13:12:17;100047.41;;;-0.32;100.00
24230;BME280;12362;50.004;8.006;2022-12-13T13:14:43;100028.69;;;-0.29;100.00
24230;BME280;12362;50.004;8.006;2022-12-13T13:19:48;100034.69;;;-0.30;100.00
24230;BME280;12362;50.004;8.006;2022-12-13T13:22:28;100030.50;;;-0.36;100.00
24230;BME280;12362;50.004;8.006;2022-12-13T13:27:40;100034.81;;;-0.47;100.00
24230;BME280;12362;50.004;8.006;2022-12-13T13:30:16;100022.81;;;-0.34;100.00
24230;BME280;12362;50.004;8.006;2022-12-13T13:32:43;100032.94;;;-0.30;100.00
24230;BME280;12362;50.004;8.006;2022-12-13T13:37:53;100019.19;;;-0.17;100.00
24230;BME280;12362;50.004;8.006;2022-12-13T13:40:35;100012.38;;;-0.16;100.00
24230;BME280;12362;50.004;8.006;2022-12-13T13:54:39;99994.03;;;0.21;100.00
24230;BME280;12362;50.004;8.006;2022-12-13T14:00:20;100006.91;;;0.12;100.00
24230;BME280;12362;50.004;8.006;2022-12-13T14:08:39;100011.59;;;-0.21;100.00
24230;BME280;12362;50.004;8.006;2022-12-13T14:14:19;100032.28;;;-0.45;100.00
24230;BME280;12362;50.004;8.006;2022-12-13T14:17:20;100023.97;;;-0.62;100.00
24230;BME280;12362;50.004;8.006;2022-12-13T14:22:33;100028.28;;;-0.67;100.00
24230;BME280;12362;50.004;8.006;2022-12-13T14:25:13;100027.44;;;-0.71;100.00
24230;BME280;12362;50.004;8.006;2022-12-13T14:30:23;100012.16;;;-0.71;100.00
24230;BME280;12362;50.004;8.006;2022-12-13T14:32:50;100002.00;;;-0.74;100.00
24230;BME280;12362;50.004;8.006;2022-12-13T14:35:29;100011.47;;;-0.88;100.00
24230;BME280;12362;50.004;8.006;2022-12-13T14:40:54;100010.72;;;-0.97;100.00
24230;BME280;12362;50.004;8.006;2022-12-13T14:43:31;100010.78;;;-1.04;100.00
24230;BME280;12362;50.004;8.006;2022-12-13T14:46:02;100014.22;;;-1.08;100.00
24230;BME280;12362;50.004;8.006;2022-12-13T14:48:31;100024.41;;;-1.10;100.00
24230;BME280;12362;50.004;8.006;2022-12-13T14:50:58;100015.13;;;-1.15;100.00
24230;BME280;12362;50.004;8.006;2022-12-13T14:53:29;100013.50;;;-1.22;100.00
24230;BME280;12362;50.004;8.006;2022-12-13T14:56:09;100022.88;;;-1.29;100.00